createdAt,value
2023-01-22T00:00:01.873Z,50.81
2023-01-22T00:05:04.833Z,51.69
2023-01-22T00:10:06.539Z,51.90
2023-01-22T00:15:08.470Z,51.73
2023-01-22T00:20:11.476Z,52.19
2023-01-22T00:25:13.011Z,51.78
2023-01-22T00:30:14.593Z,52.01
2023-01-22T00:35:16.254Z,52.17
2023-01-22T00:40:20.656Z,51.91
2023-01-22T00:45:22.356Z,52.46
2023-01-22T00:50:23.871Z,51.49
2023-01-22T00:55:25.399Z,51.60
2023-01-22T01:00:27.002Z,51.36
2023-01-22T01:05:28.597Z,51.50
2023-01-22T01:10:30.107Z,50.86
2023-01-22T01:15:31.632Z,50.95
2023-01-22T01:20:33.169Z,50.58
2023-01-22T01:25:34.681Z,50.15
2023-01-22T01:30:36.293Z,49.91
2023-01-22T01:35:38.139Z,50.31
2023-01-22T01:40:43.871Z,50.24
2023-01-22T01:45:45.499Z,49.63
2023-01-22T01:51:09.025Z,50.01
2023-01-22T01:56:20.428Z,49.49
2023-01-22T02:01:23.151Z,49.98
2023-01-22T02:06:26.438Z,51.59
2023-01-22T02:11:30.383Z,51.74
2023-01-22T02:16:32.102Z,51.09
2023-01-22T02:21:38.139Z,51.34
2023-01-22T02:26:40.974Z,51.89
2023-01-22T02:31:43.455Z,51.20
2023-01-22T02:36:45.019Z,51.82
2023-01-22T02:41:46.788Z,51.09
2023-01-22T02:46:50.008Z,51.47
2023-01-22T02:51:51.652Z,51.78
2023-01-22T02:56:54.232Z,51.63
2023-01-22T03:01:55.850Z,51.92
2023-01-22T03:06:57.409Z,52.37
2023-01-22T03:12:02.272Z,51.73
2023-01-22T03:17:09.142Z,51.49
2023-01-22T03:22:10.765Z,51.40
2023-01-22T03:27:12.262Z,52.00
2023-01-22T03:32:14.636Z,51.97
2023-01-22T03:37:16.350Z,51.78
2023-01-22T03:42:20.731Z,51.61
2023-01-22T03:47:22.406Z,52.11
2023-01-22T03:52:24.339Z,52.17
2023-01-22T03:57:25.858Z,51.82
2023-01-22T04:02:28.562Z,51.93
2023-01-22T04:07:43.977Z,51.82
2023-01-22T04:12:46.852Z,51.31
2023-01-22T04:17:51.484Z,51.74
2023-01-22T04:23:13.233Z,52.21
2023-01-22T04:28:16.443Z,52.61
2023-01-22T04:33:19.308Z,52.35
2023-01-22T04:38:35.524Z,52.33
2023-01-22T04:43:38.132Z,52.10
2023-01-22T04:48:39.682Z,52.04
2023-01-22T04:53:41.411Z,52.33
2023-01-22T04:58:43.907Z,51.86
2023-01-22T05:03:45.595Z,52.61
2023-01-22T05:08:47.258Z,52.22
2023-01-22T05:13:48.976Z,52.09
2023-01-22T05:18:51.532Z,51.92
2023-01-22T05:23:53.097Z,51.82
2023-01-22T05:28:54.719Z,51.98
2023-01-22T05:34:11.313Z,52.56
2023-01-22T05:39:13.325Z,53.16
2023-01-22T05:44:15.877Z,52.22
2023-01-22T05:49:22.923Z,52.43
2023-01-22T05:54:26.465Z,52.45
2023-01-22T05:59:29.505Z,52.92
2023-01-22T06:04:35.723Z,52.73
2023-01-22T06:09:43.965Z,52.44
2023-01-22T06:14:45.710Z,52.66
2023-01-22T06:19:47.683Z,52.25
2023-01-22T06:24:52.574Z,51.76
2023-01-22T06:29:56.946Z,52.11
2023-01-22T06:34:58.476Z,51.85
2023-01-22T06:40:00.066Z,51.85
2023-01-22T06:45:11.908Z,51.63
2023-01-22T06:50:19.608Z,50.81
2023-01-22T06:55:21.161Z,50.56
2023-01-22T07:00:23.117Z,50.75
2023-01-22T07:05:24.856Z,50.75
2023-01-22T07:10:28.642Z,50.56
2023-01-22T07:15:30.231Z,50.81
2023-01-22T07:20:31.708Z,50.91
2023-01-22T07:25:33.185Z,50.50
2023-01-22T07:30:34.874Z,50.58
2023-01-22T07:35:36.590Z,50.94
2023-01-22T07:40:38.115Z,51.04
2023-01-22T07:45:39.629Z,51.23
2023-01-22T07:50:41.274Z,51.20
2023-01-22T07:55:42.787Z,51.51
2023-01-22T08:00:44.414Z,51.43
2023-01-22T08:05:46.209Z,51.25
2023-01-22T08:10:47.714Z,50.84
2023-01-22T08:15:49.273Z,49.89
2023-01-22T08:20:50.895Z,49.37
2023-01-22T08:25:52.464Z,49.23
2023-01-22T08:31:02.109Z,48.82
2023-01-22T08:36:03.845Z,49.10
2023-01-22T08:41:05.357Z,49.07
2023-01-22T08:46:07.037Z,49.24
2023-01-22T08:51:08.847Z,49.18
2023-01-22T08:56:10.697Z,48.47
2023-01-22T09:01:16.731Z,47.39
2023-01-22T09:06:18.334Z,48.43
2023-01-22T09:11:19.867Z,47.78
2023-01-22T09:16:21.619Z,48.22
2023-01-22T09:21:23.165Z,48.76
2023-01-22T09:26:24.647Z,48.30
2023-01-22T09:31:26.886Z,48.44
2023-01-22T09:36:28.982Z,46.60
2023-01-22T09:41:38.122Z,47.35
2023-01-22T09:47:01.258Z,47.65
2023-01-22T09:52:05.412Z,47.85
2023-01-22T09:57:19.897Z,47.03
2023-01-22T10:02:45.165Z,47.77
2023-01-22T10:07:52.906Z,47.21
2023-01-22T10:13:06.352Z,47.67
2023-01-22T10:18:21.875Z,48.11
2023-01-22T10:23:26.098Z,47.88
2023-01-22T10:28:28.195Z,47.13
2023-01-22T10:33:29.767Z,47.51
2023-01-22T10:38:31.552Z,46.88
2023-01-22T10:43:35.652Z,47.09
2023-01-22T10:48:37.129Z,47.24
2023-01-22T10:53:45.615Z,47.49
2023-01-22T10:58:47.821Z,47.14
2023-01-22T11:03:49.506Z,46.63
2023-01-22T11:09:05.056Z,46.93
2023-01-22T11:14:14.016Z,46.60
2023-01-22T11:19:21.658Z,46.23
2023-01-22T11:24:39.581Z,46.23
2023-01-22T11:30:10.490Z,45.95
2023-01-22T11:35:20.885Z,46.75
2023-01-22T11:40:35.698Z,46.15
2023-01-22T11:46:02.160Z,45.81
2023-01-22T11:51:14.357Z,45.52
2023-01-22T11:56:40.821Z,45.14
2023-01-22T12:02:12.295Z,45.69
2023-01-22T12:07:19.840Z,45.02
2023-01-22T12:12:31.162Z,46.10
2023-01-22T12:17:51.115Z,45.16
2023-01-22T12:23:34.361Z,45.16
2023-01-22T12:28:44.736Z,45.39
2023-01-22T12:33:47.505Z,44.72
2023-01-22T12:39:00.782Z,44.90
2023-01-22T12:44:10.685Z,44.60
2023-01-22T12:49:13.936Z,44.99
2023-01-22T12:54:27.498Z,45.67
2023-01-22T12:59:34.744Z,45.33
2023-01-22T13:04:36.397Z,44.65
2023-01-22T13:09:37.905Z,45.54
2023-01-22T13:14:41.326Z,45.28
2023-01-22T13:19:44.309Z,45.31
2023-01-22T13:25:04.169Z,44.51
2023-01-22T13:30:13.059Z,44.70
2023-01-22T13:35:17.774Z,44.73
2023-01-22T13:40:26.790Z,45.72
2023-01-22T13:45:30.735Z,44.47
2023-01-22T13:50:32.797Z,45.04
2023-01-22T13:55:34.796Z,45.46
2023-01-22T14:00:36.922Z,44.75
2023-01-22T14:05:41.057Z,44.94
2023-01-22T14:10:42.539Z,45.08
2023-01-22T14:15:54.871Z,45.28
2023-01-22T14:20:56.376Z,46.48
2023-01-22T14:26:01.112Z,46.88
2023-01-22T14:31:03.393Z,46.27
2023-01-22T14:36:05.275Z,45.67
2023-01-22T14:41:07.211Z,46.22
2023-01-22T14:46:09.002Z,45.45
2023-01-22T14:51:11.640Z,43.92
2023-01-22T14:56:13.117Z,43.50
2023-01-22T15:01:17.760Z,43.96
2023-01-22T15:06:19.311Z,43.24
2023-01-22T15:11:20.828Z,43.05
2023-01-22T15:16:22.325Z,43.64
2023-01-22T15:21:23.967Z,43.09
2023-01-22T15:26:28.697Z,43.23
2023-01-22T15:31:30.987Z,43.76
2023-01-22T15:36:34.526Z,43.20
2023-01-22T15:41:36.974Z,42.54
2023-01-22T15:46:40.581Z,43.86
2023-01-22T15:51:42.064Z,44.07
2023-01-22T15:56:43.657Z,43.79
2023-01-22T16:01:45.265Z,43.98
2023-01-22T16:06:46.848Z,44.65
2023-01-22T16:11:48.289Z,45.09
2023-01-22T16:16:49.765Z,44.73
2023-01-22T16:21:53.249Z,45.03
2023-01-22T16:26:54.815Z,45.86
2023-01-22T16:31:56.513Z,46.09
2023-01-22T16:36:58.010Z,46.25
2023-01-22T16:41:59.489Z,45.78
2023-01-22T16:47:00.966Z,45.64
2023-01-22T16:52:20.715Z,44.68
2023-01-22T16:57:23.191Z,46.38
2023-01-22T17:02:24.892Z,46.50
2023-01-22T17:07:33.720Z,45.15
2023-01-22T17:12:35.626Z,46.85
2023-01-22T17:17:37.168Z,47.01
2023-01-22T17:22:38.748Z,46.51
2023-01-22T17:27:42.841Z,47.17
2023-01-22T17:32:45.411Z,45.95
2023-01-22T17:37:47.674Z,46.98
2023-01-22T17:42:49.134Z,47.65
2023-01-22T17:47:50.614Z,47.65
2023-01-22T17:52:52.149Z,46.10
2023-01-22T17:57:54.615Z,46.81
2023-01-22T18:02:56.236Z,47.15
2023-01-22T18:07:57.730Z,46.47
2023-01-22T18:12:59.225Z,45.36
2023-01-22T18:18:00.761Z,45.50
2023-01-22T18:23:02.311Z,45.83
2023-01-22T18:28:03.799Z,46.08
2023-01-22T18:33:05.314Z,45.95
2023-01-22T18:38:06.813Z,45.62
2023-01-22T18:43:08.404Z,45.55
2023-01-22T18:48:14.954Z,45.35
2023-01-22T18:53:16.399Z,44.70
2023-01-22T18:58:18.012Z,44.39
2023-01-22T19:03:21.926Z,44.19
2023-01-22T19:08:23.385Z,44.25
2023-01-22T19:13:24.927Z,44.94
2023-01-22T19:18:28.342Z,45.03
2023-01-22T19:23:31.298Z,45.22
2023-01-22T19:28:32.773Z,45.25
2023-01-22T19:33:34.264Z,43.91
2023-01-22T19:38:35.787Z,45.19
2023-01-22T19:43:37.690Z,45.18
2023-01-22T19:48:40.040Z,45.24
2023-01-22T19:53:41.885Z,45.29
2023-01-22T19:58:43.686Z,44.36
2023-01-22T20:03:45.282Z,44.63
2023-01-22T20:08:46.937Z,45.53
2023-01-22T20:13:48.425Z,45.51
2023-01-22T20:18:50.857Z,45.55
2023-01-22T20:23:52.511Z,45.81
2023-01-22T20:28:54.193Z,45.40
2023-01-22T20:33:56.176Z,46.84
2023-01-22T20:38:57.937Z,46.69
2023-01-22T20:43:59.577Z,46.72
2023-01-22T20:49:01.071Z,46.21
2023-01-22T20:54:03.098Z,46.63
2023-01-22T20:59:07.071Z,46.85
2023-01-22T21:04:11.185Z,46.50
2023-01-22T21:09:13.488Z,46.39
2023-01-22T21:14:15.410Z,46.33
2023-01-22T21:19:21.943Z,47.75
2023-01-22T21:24:24.441Z,45.82
2023-01-22T21:29:25.947Z,46.81
2023-01-22T21:34:27.556Z,47.04
2023-01-22T21:39:30.093Z,46.49
2023-01-22T21:44:31.868Z,46.43
2023-01-22T21:49:33.945Z,46.27
2023-01-22T21:54:38.085Z,46.36
2023-01-22T21:59:39.687Z,45.83
2023-01-22T22:04:41.885Z,45.45
2023-01-22T22:09:43.429Z,45.75
2023-01-22T22:14:44.901Z,46.06
2023-01-22T22:19:46.341Z,46.50
2023-01-22T22:24:47.824Z,47.15
2023-01-22T22:29:52.859Z,47.83
2023-01-22T22:34:54.310Z,47.57
2023-01-22T22:39:55.755Z,47.62
2023-01-22T22:44:57.249Z,47.16
2023-01-22T22:49:58.698Z,47.17
2023-01-22T22:55:00.300Z,47.39
2023-01-22T23:00:01.813Z,47.39
2023-01-22T23:05:03.874Z,47.14
2023-01-22T23:10:05.818Z,47.34
2023-01-22T23:15:07.732Z,47.36
2023-01-22T23:20:10.109Z,47.30
2023-01-22T23:25:11.826Z,46.95
2023-01-22T23:30:13.354Z,47.76
2023-01-22T23:35:14.898Z,47.02
2023-01-22T23:40:16.584Z,46.86
2023-01-22T23:45:18.056Z,47.31
2023-01-22T23:50:19.671Z,47.02
2023-01-22T23:55:21.380Z,47.15
